Mc Connells, South Carolina
Current Conditions -  °F | °C
As of 7:35 PM on Monday 24 Nov 2014 (Local Time) from KDCM Reporting Station
Clear Clear  
Wind Chill: 68°   Ceiling: Unl
Heat Index: 68°   Visibility: 10mi
Dew Point: 63°   Wind: 5mph
Humidity: 83%   Direction: 190°S
Pressure: 29.88"   Gusts: NA
Location:  34.8583°N, 81.2178°W
Report Text: KDCM 250035Z AUTO 19004KT 10SM CLR 20/17 A2988 RMK AO2
Loading
Personal Weather Stations






























Interactive Weather Map New forecast layout! Learn more

10-Day Weather Forecast

Advertisements
Track Severe Weather on mobile